createdAt,value
2023-05-11T00:00:52.391Z,6.60
2023-05-11T00:03:19.302Z,6.90
2023-05-11T00:05:49.533Z,6.80
2023-05-11T00:08:17.286Z,6.97
2023-05-11T00:10:47.949Z,6.93
2023-05-11T00:13:14.894Z,6.20
2023-05-11T00:15:41.836Z,7.47
2023-05-11T00:18:08.892Z,6.87
2023-05-11T00:20:36.091Z,7.27
2023-05-11T00:23:02.849Z,6.77
2023-05-11T00:25:29.739Z,7.43
2023-05-11T00:27:56.535Z,7.17
2023-05-11T00:30:23.374Z,7.60
2023-05-11T00:32:51.586Z,6.13
2023-05-11T00:35:18.392Z,8.10
2023-05-11T00:37:45.143Z,7.17
2023-05-11T00:40:11.969Z,6.90
2023-05-11T00:42:38.664Z,6.63
2023-05-11T00:45:06.215Z,6.27
2023-05-11T00:47:33.258Z,6.90
2023-05-11T00:50:00.110Z,7.50
2023-05-11T00:52:26.943Z,6.60
2023-05-11T00:54:53.784Z,7.00
2023-05-11T00:57:21.359Z,6.87
2023-05-11T00:59:49.471Z,7.40
2023-05-11T01:02:16.913Z,6.77
2023-05-11T01:04:44.165Z,6.70
2023-05-11T01:07:20.019Z,7.37
2023-05-11T01:10:07.339Z,7.03
2023-05-11T01:12:43.480Z,6.20
2023-05-11T01:15:18.497Z,7.47
2023-05-11T01:17:50.519Z,6.90
2023-05-11T01:20:27.150Z,6.60
2023-05-11T01:23:14.524Z,7.20
2023-05-11T01:25:59.406Z,7.03
2023-05-11T01:28:30.442Z,6.03
2023-05-11T01:31:11.413Z,7.50
2023-05-11T01:33:41.368Z,6.17
2023-05-11T01:36:10.520Z,7.63
2023-05-11T01:38:41.209Z,7.37
2023-05-11T01:41:17.940Z,7.17
2023-05-11T01:43:46.693Z,6.70
2023-05-11T01:46:14.395Z,7.10
2023-05-11T01:48:43.343Z,7.00
2023-05-11T01:51:11.615Z,7.00
2023-05-11T01:53:39.724Z,6.57
2023-05-11T01:56:07.241Z,7.07
2023-05-11T01:58:34.946Z,6.80
2023-05-11T02:01:03.423Z,6.30
2023-05-11T02:03:32.103Z,6.73
2023-05-11T02:05:59.377Z,7.57
2023-05-11T02:08:27.404Z,6.87
2023-05-11T02:10:55.079Z,7.33
2023-05-11T02:13:22.357Z,7.47
2023-05-11T02:15:51.675Z,7.30
2023-05-11T02:18:19.842Z,7.17
2023-05-11T02:20:47.728Z,7.13
2023-05-11T02:23:15.125Z,6.33
2023-05-11T02:25:42.628Z,7.00
2023-05-11T02:28:09.610Z,6.10
2023-05-11T02:30:41.796Z,6.40
2023-05-11T02:33:09.549Z,6.20
2023-05-11T02:35:39.571Z,7.47
2023-05-11T02:38:07.547Z,6.97
2023-05-11T02:40:37.490Z,8.27
2023-05-11T02:43:09.559Z,7.00
2023-05-11T02:45:36.766Z,6.93
2023-05-11T02:48:09.413Z,6.63
2023-05-11T02:50:38.164Z,7.27
2023-05-11T02:53:08.506Z,7.17
2023-05-11T02:55:35.215Z,8.40
2023-05-11T02:58:02.141Z,9.03
2023-05-11T03:00:28.984Z,9.40
2023-05-11T03:02:55.948Z,8.60
2023-05-11T03:05:22.795Z,8.10
2023-05-11T03:07:49.582Z,7.20
2023-05-11T03:10:16.617Z,6.80
2023-05-11T03:12:44.109Z,7.13
2023-05-11T03:15:12.317Z,6.73
2023-05-11T03:17:40.061Z,6.47
2023-05-11T03:20:08.366Z,7.27
2023-05-11T03:22:35.646Z,6.40
2023-05-11T03:25:03.943Z,7.03
2023-05-11T03:27:32.319Z,6.33
2023-05-11T03:30:00.581Z,6.73
2023-05-11T03:32:27.434Z,6.73
2023-05-11T03:34:54.308Z,6.70
2023-05-11T03:37:21.212Z,6.73
2023-05-11T03:39:48.865Z,6.50
2023-05-11T03:42:15.865Z,6.50
2023-05-11T03:44:44.360Z,5.60
2023-05-11T03:47:11.598Z,6.30
2023-05-11T03:49:38.725Z,6.80
2023-05-11T03:52:06.412Z,5.93
2023-05-11T03:54:33.169Z,5.70
2023-05-11T03:56:59.956Z,6.30
2023-05-11T03:59:31.915Z,6.73
2023-05-11T04:02:01.520Z,6.30
2023-05-11T04:04:30.381Z,5.87
2023-05-11T04:06:58.431Z,6.37
2023-05-11T04:09:25.441Z,6.37
2023-05-11T04:11:52.251Z,7.23
2023-05-11T04:14:19.072Z,5.90
2023-05-11T04:16:45.786Z,6.60
2023-05-11T04:19:12.780Z,7.63
2023-05-11T04:21:39.412Z,7.27
2023-05-11T04:24:06.459Z,6.27
2023-05-11T04:26:33.190Z,7.23
2023-05-11T04:28:59.860Z,7.73
2023-05-11T04:31:26.605Z,7.13
2023-05-11T04:33:53.248Z,8.77
2023-05-11T04:36:20.517Z,8.80
2023-05-11T04:38:47.244Z,10.20
2023-05-11T04:41:15.017Z,12.47
2023-05-11T04:43:41.754Z,11.20
2023-05-11T04:46:08.373Z,9.50
2023-05-11T04:48:36.807Z,10.77
2023-05-11T04:51:05.583Z,10.20
2023-05-11T04:53:32.359Z,9.93
2023-05-11T04:55:59.120Z,8.60
2023-05-11T04:58:25.758Z,7.17
2023-05-11T05:00:52.487Z,7.07
2023-05-11T05:03:19.408Z,7.20
2023-05-11T05:05:46.549Z,7.43
2023-05-11T05:08:13.679Z,7.40
2023-05-11T05:10:40.395Z,8.60
2023-05-11T05:13:07.208Z,7.87
2023-05-11T05:15:33.941Z,7.43
2023-05-11T05:18:00.730Z,7.10
2023-05-11T05:20:27.575Z,7.17
2023-05-11T05:22:55.395Z,8.80
2023-05-11T05:25:22.580Z,8.40
2023-05-11T05:27:49.370Z,7.30
2023-05-11T05:30:16.583Z,7.53
2023-05-11T05:32:43.619Z,8.40
2023-05-11T05:35:10.362Z,7.77
2023-05-11T05:37:37.777Z,8.10
2023-05-11T05:40:05.794Z,9.20
2023-05-11T05:42:32.541Z,8.83
2023-05-11T05:44:59.424Z,8.03
2023-05-11T05:47:26.296Z,8.00
2023-05-11T05:49:53.059Z,8.03
2023-05-11T05:52:19.756Z,7.20
2023-05-11T05:54:46.536Z,8.57
2023-05-11T05:57:15.044Z,7.63
2023-05-11T05:59:42.552Z,6.30
2023-05-11T06:02:09.319Z,7.17
2023-05-11T06:04:36.307Z,7.93
2023-05-11T06:07:03.116Z,7.90
2023-05-11T06:09:29.863Z,7.93
2023-05-11T06:11:57.380Z,7.20
2023-05-11T06:14:24.149Z,6.00
2023-05-11T06:16:50.993Z,6.10
2023-05-11T06:19:17.737Z,7.30
2023-05-11T06:21:46.121Z,7.10
2023-05-11T06:24:12.907Z,6.00
2023-05-11T06:26:40.958Z,6.07
2023-05-11T06:29:08.147Z,4.20
2023-05-11T06:31:35.006Z,3.13
2023-05-11T06:34:01.867Z,3.57
2023-05-11T06:36:28.719Z,3.30
2023-05-11T06:38:55.495Z,3.77
2023-05-11T06:41:22.776Z,3.83
2023-05-11T06:43:49.476Z,3.57
2023-05-11T06:46:17.995Z,4.20
2023-05-11T06:48:44.852Z,3.73
2023-05-11T06:51:11.966Z,3.53
2023-05-11T06:53:39.275Z,3.83
2023-05-11T06:56:06.487Z,3.40
2023-05-11T06:58:33.236Z,4.80
2023-05-11T07:01:00.029Z,8.30
2023-05-11T07:03:26.896Z,7.40
2023-05-11T07:05:54.191Z,4.53
2023-05-11T07:08:20.982Z,2.40
2023-05-11T07:10:47.839Z,2.53
2023-05-11T07:13:14.579Z,3.40
2023-05-11T07:15:41.615Z,1.80
2023-05-11T07:18:08.457Z,1.43
2023-05-11T07:20:40.034Z,1.83
2023-05-11T07:23:07.191Z,1.70
2023-05-11T07:25:33.942Z,3.03
2023-05-11T07:28:00.681Z,2.93
2023-05-11T07:30:27.601Z,3.03
2023-05-11T07:32:54.482Z,2.43
2023-05-11T07:35:22.823Z,3.60
2023-05-11T07:37:50.892Z,2.43
2023-05-11T07:40:17.913Z,2.10
2023-05-11T07:42:44.930Z,2.63
2023-05-11T07:45:11.917Z,3.40
2023-05-11T07:47:38.772Z,3.03
2023-05-11T07:50:06.210Z,2.57
2023-05-11T07:52:32.973Z,2.03
2023-05-11T07:54:59.731Z,2.13
2023-05-11T07:57:26.553Z,2.27
2023-05-11T07:59:53.312Z,2.47
2023-05-11T08:02:20.066Z,2.97
2023-05-11T08:04:46.993Z,2.80
2023-05-11T08:07:14.360Z,3.03
2023-05-11T08:09:41.162Z,2.47
2023-05-11T08:12:07.939Z,2.43
2023-05-11T08:14:34.685Z,2.30
2023-05-11T08:17:01.452Z,5.13
2023-05-11T08:19:28.287Z,4.20
2023-05-11T08:21:55.054Z,6.80
2023-05-11T08:24:21.783Z,3.50
2023-05-11T08:26:48.584Z,3.47
2023-05-11T08:29:15.313Z,2.53
2023-05-11T08:31:42.092Z,2.33
2023-05-11T08:34:18.207Z,2.57
2023-05-11T08:36:47.106Z,2.63
2023-05-11T08:39:14.003Z,3.20
2023-05-11T08:41:41.357Z,2.33
2023-05-11T08:44:08.885Z,18.13
2023-05-11T08:46:36.433Z,7.60
2023-05-11T08:49:03.199Z,7.17
2023-05-11T08:51:30.067Z,3.60
2023-05-11T08:53:57.960Z,4.30
2023-05-11T08:56:26.236Z,3.13
2023-05-11T08:58:56.257Z,2.80
2023-05-11T09:01:23.909Z,2.57
2023-05-11T09:03:51.605Z,2.30
2023-05-11T09:06:18.631Z,2.30
2023-05-11T09:08:46.043Z,3.80
2023-05-11T09:11:12.914Z,2.30
2023-05-11T09:13:39.714Z,2.77
2023-05-11T09:16:13.275Z,2.13
2023-05-11T09:18:53.952Z,2.30
2023-05-11T09:21:20.777Z,3.67
2023-05-11T09:23:50.856Z,3.77
2023-05-11T09:26:20.933Z,4.10
2023-05-11T09:29:02.371Z,2.60
2023-05-11T09:31:37.554Z,2.70
2023-05-11T09:34:17.468Z,2.80
2023-05-11T09:36:52.446Z,2.67
2023-05-11T09:39:38.231Z,2.77
2023-05-11T09:42:26.697Z,2.40
2023-05-11T09:44:54.060Z,3.13
2023-05-11T09:47:22.553Z,2.80
2023-05-11T09:49:49.479Z,3.13
2023-05-11T09:52:18.317Z,2.20
2023-05-11T09:54:47.150Z,4.10
2023-05-11T09:57:23.368Z,3.10
2023-05-11T09:59:50.497Z,3.00
2023-05-11T10:02:23.696Z,2.30
2023-05-11T10:04:51.753Z,1.93
2023-05-11T10:07:39.400Z,2.03
2023-05-11T10:10:07.797Z,2.10
2023-05-11T10:12:38.460Z,2.00
2023-05-11T10:15:09.786Z,2.17
2023-05-11T10:17:37.245Z,1.90
2023-05-11T10:20:06.057Z,1.80
2023-05-11T10:22:33.312Z,2.40
2023-05-11T10:25:00.613Z,2.10
2023-05-11T10:27:27.839Z,2.00
2023-05-11T10:29:54.935Z,1.97
2023-05-11T10:32:22.746Z,2.13
2023-05-11T10:34:52.615Z,4.13
2023-05-11T10:37:21.313Z,2.20
2023-05-11T10:39:50.415Z,1.80
2023-05-11T10:42:23.653Z,2.10
2023-05-11T10:45:15.534Z,1.63
2023-05-11T10:47:50.996Z,2.37
2023-05-11T10:50:29.841Z,2.57
2023-05-11T10:53:32.933Z,2.53
2023-05-11T10:56:12.426Z,2.30
2023-05-11T10:59:18.192Z,2.20
2023-05-11T11:01:45.692Z,1.93
2023-05-11T11:04:13.763Z,2.13
2023-05-11T11:06:42.602Z,1.57
2023-05-11T11:09:13.548Z,2.47
2023-05-11T11:11:50.350Z,1.83
2023-05-11T11:14:18.635Z,1.83
2023-05-11T11:17:14.637Z,2.33
2023-05-11T11:19:41.566Z,1.63
2023-05-11T11:22:41.732Z,2.27
2023-05-11T11:25:10.084Z,2.70
2023-05-11T11:27:49.022Z,2.47
2023-05-11T11:30:17.565Z,2.97
2023-05-11T11:32:46.183Z,2.57
2023-05-11T11:35:45.801Z,2.27
2023-05-11T11:38:19.782Z,2.33
2023-05-11T11:40:51.899Z,2.47
2023-05-11T11:43:28.496Z,3.83
2023-05-11T11:46:02.329Z,2.10
2023-05-11T11:48:29.721Z,2.60
2023-05-11T11:51:07.314Z,3.30
2023-05-11T11:53:41.284Z,3.27
2023-05-11T11:56:14.267Z,3.27
2023-05-11T11:58:46.910Z,3.00
2023-05-11T12:01:22.042Z,3.37
2023-05-11T12:04:21.111Z,3.50
2023-05-11T12:06:58.321Z,3.97
2023-05-11T12:09:26.774Z,3.10
2023-05-11T12:11:53.844Z,3.27
2023-05-11T12:14:22.040Z,2.93
2023-05-11T12:17:08.242Z,3.60
2023-05-11T12:19:35.708Z,2.93
2023-05-11T12:22:02.497Z,3.10
2023-05-11T12:24:29.334Z,2.77
2023-05-11T12:26:57.621Z,2.77
2023-05-11T12:29:24.884Z,3.17
2023-05-11T12:31:51.914Z,3.10
2023-05-11T12:34:21.477Z,2.83
2023-05-11T12:36:49.688Z,2.73
2023-05-11T12:39:24.398Z,3.30
2023-05-11T12:41:52.714Z,2.43
2023-05-11T12:44:20.864Z,2.70
2023-05-11T12:46:48.356Z,2.50
2023-05-11T12:49:26.460Z,2.60
2023-05-11T12:52:00.076Z,2.80
2023-05-11T12:54:32.145Z,2.10
2023-05-11T12:57:00.005Z,2.30
2023-05-11T12:59:34.172Z,2.07
2023-05-11T13:02:16.780Z,3.07
2023-05-11T13:04:44.482Z,2.20
2023-05-11T13:07:12.413Z,2.13
2023-05-11T13:09:39.912Z,2.17
2023-05-11T13:12:10.423Z,2.50
2023-05-11T13:14:37.237Z,2.63
2023-05-11T13:17:04.081Z,2.00
2023-05-11T13:19:32.296Z,2.80
2023-05-11T13:21:59.303Z,2.30
2023-05-11T13:24:26.813Z,2.87
2023-05-11T13:26:54.414Z,2.00
2023-05-11T13:29:21.817Z,2.73
2023-05-11T13:31:51.156Z,2.97
2023-05-11T13:34:19.082Z,2.60
2023-05-11T13:36:46.382Z,3.07
2023-05-11T13:39:13.256Z,3.37
2023-05-11T13:41:40.030Z,3.60
2023-05-11T13:44:06.850Z,2.37
2023-05-11T13:46:33.646Z,2.97
2023-05-11T13:49:01.098Z,2.53
2023-05-11T13:51:27.854Z,2.30
2023-05-11T13:53:54.659Z,2.40
2023-05-11T13:56:22.275Z,2.33
2023-05-11T13:58:49.075Z,2.10
2023-05-11T14:01:16.562Z,2.33
2023-05-11T14:03:43.385Z,2.20
2023-05-11T14:06:10.236Z,2.70
2023-05-11T14:08:36.997Z,2.90
2023-05-11T14:11:03.720Z,2.83
2023-05-11T14:13:30.649Z,2.90
2023-05-11T14:15:57.362Z,3.67
2023-05-11T14:18:25.982Z,2.50
2023-05-11T14:20:54.041Z,3.60
2023-05-11T14:23:20.805Z,3.73
2023-05-11T14:25:47.549Z,4.07
2023-05-11T14:28:14.298Z,9.07
2023-05-11T14:30:41.196Z,2.50
2023-05-11T14:33:07.999Z,1.77
2023-05-11T14:35:36.471Z,1.57
2023-05-11T14:38:04.782Z,1.43
2023-05-11T14:40:31.682Z,8.27
2023-05-11T14:42:58.449Z,1.73
2023-05-11T14:45:25.143Z,5.23
2023-05-11T14:47:52.194Z,2.40
2023-05-11T14:50:19.004Z,3.00
2023-05-11T14:52:45.674Z,1.40
2023-05-11T14:55:12.500Z,1.80
2023-05-11T14:57:39.567Z,1.70
2023-05-11T15:00:07.137Z,1.07
2023-05-11T15:02:33.926Z,1.50
2023-05-11T15:05:00.723Z,1.80
2023-05-11T15:07:27.551Z,3.00
2023-05-11T15:09:54.560Z,3.07
2023-05-11T15:12:21.354Z,1.57
2023-05-11T15:14:48.104Z,1.60
2023-05-11T15:17:14.804Z,1.77
2023-05-11T15:19:41.521Z,2.00
2023-05-11T15:22:08.204Z,1.13
2023-05-11T15:24:34.953Z,1.67
2023-05-11T15:27:01.715Z,1.27
2023-05-11T15:29:28.456Z,1.10
2023-05-11T15:31:55.144Z,1.50
2023-05-11T15:34:21.905Z,2.07
2023-05-11T15:36:49.874Z,0.93
2023-05-11T15:39:17.812Z,1.17
2023-05-11T15:41:44.667Z,1.87
2023-05-11T15:44:11.491Z,1.63
2023-05-11T15:46:39.022Z,2.10
2023-05-11T15:49:06.356Z,1.90
2023-05-11T15:51:33.097Z,1.50
2023-05-11T15:53:59.952Z,1.00
2023-05-11T15:56:27.098Z,1.73
2023-05-11T15:58:54.060Z,1.40
2023-05-11T16:01:21.233Z,1.30
2023-05-11T16:03:48.075Z,1.70
2023-05-11T16:06:14.943Z,2.23
2023-05-11T16:08:41.800Z,2.53
2023-05-11T16:11:08.590Z,2.40
2023-05-11T16:13:35.392Z,2.70
2023-05-11T16:16:02.141Z,4.70
2023-05-11T16:18:29.017Z,7.53
2023-05-11T16:20:56.519Z,3.70
2023-05-11T16:23:25.460Z,0.90
2023-05-11T16:25:52.510Z,4.57
2023-05-11T16:28:19.210Z,3.40
2023-05-11T16:30:46.067Z,2.30
2023-05-11T16:33:12.825Z,4.00
2023-05-11T16:35:39.679Z,2.90
2023-05-11T16:38:06.837Z,1.50
2023-05-11T16:40:33.569Z,0.80
2023-05-11T16:43:00.244Z,1.63
2023-05-11T16:45:27.034Z,1.80
2023-05-11T16:47:53.879Z,1.37
2023-05-11T16:50:21.138Z,4.00
2023-05-11T16:52:48.807Z,6.00
2023-05-11T16:55:16.204Z,1.90
2023-05-11T16:57:44.021Z,0.70
2023-05-11T17:00:11.664Z,0.83
2023-05-11T17:02:38.432Z,1.60
2023-05-11T17:05:06.837Z,1.50
2023-05-11T17:07:34.343Z,0.80
2023-05-11T17:10:01.190Z,7.00
2023-05-11T17:12:29.337Z,1.60
2023-05-11T17:14:57.438Z,1.27
2023-05-11T17:17:24.480Z,0.83
2023-05-11T17:19:51.319Z,8.50
2023-05-11T17:22:19.082Z,2.00
2023-05-11T17:24:46.848Z,1.00
2023-05-11T17:27:13.602Z,1.20
2023-05-11T17:29:43.098Z,1.80
2023-05-11T17:32:10.103Z,0.70
2023-05-11T17:34:36.993Z,0.83
2023-05-11T17:37:04.056Z,1.00
2023-05-11T17:39:30.894Z,0.73
2023-05-11T17:41:58.041Z,1.00
2023-05-11T17:44:24.818Z,1.20
2023-05-11T17:46:52.142Z,0.73
2023-05-11T17:49:19.109Z,1.40
2023-05-11T17:51:47.274Z,1.50
2023-05-11T17:54:14.386Z,1.13
2023-05-11T17:56:41.335Z,1.40
2023-05-11T17:59:08.193Z,1.03
2023-05-11T18:01:35.007Z,0.90
2023-05-11T18:04:02.910Z,0.70
2023-05-11T18:06:30.281Z,0.53
2023-05-11T18:08:58.825Z,1.03
2023-05-11T18:11:26.365Z,2.03
2023-05-11T18:13:53.516Z,1.37
2023-05-11T18:16:21.552Z,1.60
2023-05-11T18:18:48.436Z,2.00
2023-05-11T18:21:15.236Z,1.40
2023-05-11T18:23:42.473Z,1.47
2023-05-11T18:26:09.195Z,1.07
2023-05-11T18:28:35.941Z,1.00
2023-05-11T18:31:02.638Z,1.33
2023-05-11T18:33:29.466Z,1.00
2023-05-11T18:35:56.257Z,1.47
2023-05-11T18:38:23.085Z,0.97
2023-05-11T18:40:49.813Z,1.27
2023-05-11T18:43:16.570Z,0.90
2023-05-11T18:45:45.727Z,0.80
2023-05-11T18:48:12.644Z,0.77
2023-05-11T18:50:40.429Z,1.10
2023-05-11T18:53:07.167Z,1.07
2023-05-11T18:55:44.893Z,1.07
2023-05-11T18:58:20.161Z,1.10
2023-05-11T19:00:51.429Z,0.87
2023-05-11T19:03:22.339Z,0.70
2023-05-11T19:05:49.689Z,0.50
2023-05-11T19:08:16.762Z,0.70
2023-05-11T19:10:45.434Z,0.70
2023-05-11T19:13:13.242Z,0.60
2023-05-11T19:15:40.457Z,0.70
2023-05-11T19:18:08.020Z,0.60
2023-05-11T19:20:34.925Z,0.70
2023-05-11T19:23:01.962Z,0.97
2023-05-11T19:25:28.709Z,0.53
2023-05-11T19:27:57.291Z,0.70
2023-05-11T19:30:24.993Z,1.20
2023-05-11T19:32:51.819Z,0.80
2023-05-11T19:35:19.145Z,0.90
2023-05-11T19:37:49.137Z,1.03
2023-05-11T19:40:44.781Z,0.97
2023-05-11T19:43:06.980Z,0.77
2023-05-11T19:45:34.208Z,0.80
2023-05-11T19:48:01.189Z,0.80
2023-05-11T19:50:28.109Z,0.70
2023-05-11T19:52:55.173Z,0.90
2023-05-11T19:55:21.952Z,0.93
2023-05-11T19:57:48.889Z,1.53
2023-05-11T20:00:18.910Z,1.07
2023-05-11T20:02:46.722Z,0.80
2023-05-11T20:05:13.613Z,0.63
2023-05-11T20:07:40.544Z,0.70
2023-05-11T20:10:07.954Z,0.50
2023-05-11T20:12:35.046Z,0.70
2023-05-11T20:15:01.786Z,0.80
2023-05-11T20:17:28.805Z,0.70
2023-05-11T20:19:55.433Z,0.57
2023-05-11T20:22:22.726Z,0.60
2023-05-11T20:24:49.479Z,0.90
2023-05-11T20:27:16.387Z,0.57
2023-05-11T20:29:43.354Z,0.63
2023-05-11T20:32:09.988Z,0.90
2023-05-11T20:34:36.701Z,0.60
2023-05-11T20:37:03.781Z,0.53
2023-05-11T20:39:30.582Z,0.70
2023-05-11T20:41:59.048Z,0.80
2023-05-11T20:44:26.061Z,0.70
2023-05-11T20:46:52.845Z,0.53
2023-05-11T20:49:34.664Z,0.70
2023-05-11T20:52:04.861Z,0.60
2023-05-11T20:54:33.822Z,0.83
2023-05-11T20:57:01.711Z,1.13
2023-05-11T21:01:59.445Z,0.93
2023-05-11T21:04:26.346Z,1.00
2023-05-11T21:06:55.963Z,0.73
2023-05-11T21:09:22.663Z,0.80
2023-05-11T21:11:49.449Z,0.80
2023-05-11T21:14:16.474Z,0.90
2023-05-11T21:16:43.238Z,0.53
2023-05-11T21:19:10.045Z,0.77
2023-05-11T21:21:36.863Z,0.70
2023-05-11T21:24:04.219Z,0.60
2023-05-11T21:26:30.771Z,1.27
2023-05-11T21:28:57.576Z,0.80
2023-05-11T21:31:24.408Z,1.00
2023-05-11T21:33:52.008Z,1.33
2023-05-11T21:36:18.617Z,1.10
2023-05-11T21:38:45.388Z,0.63
2023-05-11T21:41:12.020Z,1.00
2023-05-11T21:43:38.579Z,1.17
2023-05-11T21:46:05.521Z,1.00
2023-05-11T21:48:32.324Z,0.87
2023-05-11T21:50:58.944Z,1.47
2023-05-11T21:53:25.902Z,1.53
2023-05-11T21:55:52.538Z,1.10
2023-05-11T21:58:19.236Z,0.70
2023-05-11T22:00:46.412Z,0.90
2023-05-11T22:03:13.330Z,0.90
2023-05-11T22:05:40.042Z,1.00
2023-05-11T22:08:15.060Z,1.03
2023-05-11T22:10:43.194Z,1.20
2023-05-11T22:13:09.900Z,0.93
2023-05-11T22:15:36.614Z,1.10
2023-05-11T22:18:03.625Z,1.33
2023-05-11T22:20:31.758Z,0.80
2023-05-11T22:22:59.365Z,1.47
2023-05-11T22:25:26.646Z,1.03
2023-05-11T22:27:53.373Z,0.70
2023-05-11T22:30:20.389Z,1.00
2023-05-11T22:32:47.404Z,1.10
2023-05-11T22:35:14.200Z,1.23
2023-05-11T22:37:41.174Z,1.20
2023-05-11T22:40:08.842Z,1.40
2023-05-11T22:42:35.648Z,1.00
2023-05-11T22:45:02.297Z,0.90
2023-05-11T22:47:29.468Z,1.10
2023-05-11T22:49:56.214Z,1.50
2023-05-11T22:52:22.998Z,0.93
2023-05-11T22:54:57.926Z,1.20
2023-05-11T22:57:26.373Z,0.93
2023-05-11T22:59:52.959Z,1.30
2023-05-11T23:02:19.948Z,1.03
2023-05-11T23:04:53.074Z,1.00
2023-05-11T23:07:20.208Z,1.23
2023-05-11T23:09:47.140Z,0.83
2023-05-11T23:12:13.837Z,1.17
2023-05-11T23:14:40.567Z,1.13
2023-05-11T23:17:07.414Z,0.87
2023-05-11T23:19:34.307Z,0.93
2023-05-11T23:22:01.251Z,1.33
2023-05-11T23:24:29.086Z,1.10
2023-05-11T23:26:56.038Z,0.93
2023-05-11T23:29:23.031Z,1.40
2023-05-11T23:31:51.115Z,1.20
2023-05-11T23:34:18.200Z,1.00
2023-05-11T23:36:44.972Z,1.70
2023-05-11T23:39:11.736Z,1.63
2023-05-11T23:41:38.599Z,1.43
2023-05-11T23:44:05.488Z,1.00
2023-05-11T23:46:32.685Z,1.33
2023-05-11T23:48:59.548Z,1.20
2023-05-11T23:51:26.267Z,1.40
2023-05-11T23:53:53.114Z,1.70
2023-05-11T23:56:19.922Z,1.80
2023-05-11T23:58:46.737Z,1.17
